createdAt,value
2023-02-14T00:03:40.555Z,3.30
2023-02-14T00:07:42.299Z,3.10
2023-02-14T00:11:44.856Z,3.00
2023-02-14T00:15:46.553Z,2.80
2023-02-14T00:19:48.604Z,2.70
2023-02-14T00:23:50.291Z,2.60
2023-02-14T00:27:54.271Z,2.50
2023-02-14T00:31:56.549Z,2.40
2023-02-14T00:35:58.301Z,2.50
2023-02-14T00:39:59.978Z,2.40
2023-02-14T00:44:02.003Z,2.30
2023-02-14T00:48:03.915Z,2.30
2023-02-14T00:52:05.666Z,2.20
2023-02-14T00:56:08.082Z,2.10
2023-02-14T01:00:10.365Z,2.10
2023-02-14T01:04:12.091Z,2.00
2023-02-14T01:08:13.969Z,2.00
2023-02-14T01:12:15.705Z,1.90
2023-02-14T01:16:19.697Z,1.80
2023-02-14T01:20:21.819Z,1.80
2023-02-14T01:24:25.021Z,1.70
2023-02-14T01:28:26.686Z,1.70
2023-02-14T01:32:31.904Z,1.60
2023-02-14T01:36:37.010Z,1.60
2023-02-14T01:40:45.757Z,1.60
2023-02-14T01:44:50.409Z,1.50
2023-02-14T01:48:56.648Z,1.50
2023-02-14T01:53:11.358Z,1.30
2023-02-14T01:57:17.546Z,1.30
2023-02-14T02:01:19.510Z,1.20
2023-02-14T02:05:23.694Z,1.20
2023-02-14T02:09:34.171Z,1.20
2023-02-14T02:13:35.860Z,1.20
2023-02-14T02:17:46.668Z,1.10
2023-02-14T02:22:24.170Z,1.00
2023-02-14T02:26:44.011Z,1.00
2023-02-14T02:31:14.497Z,0.90
2023-02-14T02:35:25.308Z,0.80
2023-02-14T02:40:01.226Z,0.80
2023-02-14T02:44:21.471Z,0.80
2023-02-14T02:48:26.191Z,0.80
2023-02-14T02:52:59.415Z,0.70
2023-02-14T02:57:05.296Z,0.70
2023-02-14T03:01:14.936Z,0.70
2023-02-14T03:05:17.014Z,0.60
2023-02-14T03:09:27.847Z,0.60
2023-02-14T03:13:53.830Z,0.50
2023-02-14T03:18:17.427Z,0.50
2023-02-14T03:22:48.341Z,0.50
2023-02-14T03:26:58.570Z,0.50
2023-02-14T03:31:20.278Z,0.40
2023-02-14T03:35:28.505Z,0.40
2023-02-14T03:39:48.797Z,0.40
2023-02-14T03:43:57.580Z,0.40
2023-02-14T03:48:05.183Z,0.40
2023-02-14T03:52:09.510Z,0.40
2023-02-14T03:56:29.155Z,0.40
2023-02-14T04:00:35.701Z,0.40
2023-02-14T04:04:42.176Z,0.40
2023-02-14T04:08:43.872Z,0.30
2023-02-14T04:12:45.929Z,0.30
2023-02-14T04:17:06.372Z,0.30
2023-02-14T04:21:08.124Z,0.30
2023-02-14T04:25:09.835Z,0.30
2023-02-14T04:29:11.940Z,0.30
2023-02-14T04:33:13.796Z,0.20
2023-02-14T04:37:17.931Z,0.20
2023-02-14T04:41:19.619Z,0.20
2023-02-14T04:45:21.405Z,0.20
2023-02-14T04:49:23.344Z,0.20
2023-02-14T04:53:25.022Z,0.20
2023-02-14T04:57:26.792Z,0.20
2023-02-14T05:01:28.575Z,0.20
2023-02-14T05:05:30.275Z,0.20
2023-02-14T05:09:32.233Z,0.20
2023-02-14T05:13:33.890Z,0.10
2023-02-14T05:17:36.134Z,0.50
2023-02-14T05:21:38.583Z,0.50
2023-02-14T05:25:41.043Z,0.70
2023-02-14T05:29:42.762Z,0.90
2023-02-14T05:33:44.433Z,0.90
2023-02-14T05:37:46.167Z,1.10
2023-02-14T05:41:47.859Z,1.10
2023-02-14T05:50:53.385Z,1.20
2023-02-14T05:54:55.098Z,1.30
2023-02-14T05:58:56.776Z,1.40
2023-02-14T06:02:58.542Z,1.30
2023-02-14T06:07:00.394Z,1.20
2023-02-14T06:11:02.331Z,1.00
2023-02-14T06:15:04.683Z,1.00
2023-02-14T06:19:06.426Z,0.90
2023-02-14T06:23:08.112Z,0.70
2023-02-14T06:27:09.972Z,0.70
2023-02-14T06:31:17.992Z,0.60
2023-02-14T06:35:19.913Z,0.50
2023-02-14T06:39:21.734Z,0.40
2023-02-14T06:43:23.407Z,0.40
2023-02-14T06:47:25.166Z,0.40
2023-02-14T06:51:26.905Z,0.40
2023-02-14T06:55:28.664Z,0.60
2023-02-14T06:59:30.372Z,0.60
2023-02-14T07:03:32.041Z,0.80
2023-02-14T07:07:33.733Z,0.90
2023-02-14T07:11:35.460Z,1.10
2023-02-14T07:15:37.221Z,1.40
2023-02-14T07:19:38.960Z,1.70
2023-02-14T07:23:40.894Z,1.80
2023-02-14T07:27:43.410Z,1.90
2023-02-14T07:31:45.164Z,2.30
2023-02-14T07:35:46.886Z,2.50
2023-02-14T07:39:48.587Z,2.70
2023-02-14T07:43:50.272Z,3.00
2023-02-14T07:47:54.506Z,3.30
2023-02-14T07:51:56.198Z,3.50
2023-02-14T07:55:57.890Z,3.70
2023-02-14T07:59:59.571Z,3.90
2023-02-14T08:04:01.213Z,4.10
2023-02-14T08:08:02.948Z,4.20
2023-02-14T08:12:23.449Z,4.30
2023-02-14T08:16:25.179Z,4.50
2023-02-14T08:20:26.985Z,4.50
2023-02-14T08:24:28.788Z,4.60
2023-02-14T08:28:32.327Z,4.70
2023-02-14T08:32:34.158Z,4.90
2023-02-14T08:36:36.006Z,5.00
2023-02-14T08:40:37.773Z,5.20
2023-02-14T08:44:39.462Z,5.40
2023-02-14T08:48:41.097Z,5.60
2023-02-14T08:52:43.779Z,5.70
2023-02-14T08:56:45.589Z,5.70
2023-02-14T09:00:47.359Z,5.80
2023-02-14T09:04:49.091Z,5.90
2023-02-14T09:08:53.401Z,6.10
2023-02-14T09:12:55.105Z,6.40
2023-02-14T09:16:56.896Z,6.30
2023-02-14T09:20:59.303Z,6.30
2023-02-14T09:25:01.518Z,6.50
2023-02-14T09:29:03.507Z,6.70
2023-02-14T09:33:05.375Z,6.70
2023-02-14T09:37:07.134Z,6.80
2023-02-14T09:41:10.329Z,6.90
2023-02-14T09:45:25.180Z,7.10
2023-02-14T09:49:35.809Z,7.80
2023-02-14T09:53:45.245Z,8.70
2023-02-14T09:58:03.853Z,9.30
2023-02-14T10:02:39.095Z,10.20
2023-02-14T10:06:49.313Z,11.60
2023-02-14T10:11:12.145Z,12.90
2023-02-14T10:15:32.044Z,13.70
2023-02-14T10:19:44.194Z,14.70
2023-02-14T10:23:51.335Z,14.60
2023-02-14T10:27:53.487Z,14.00
2023-02-14T10:32:01.207Z,13.80
2023-02-14T10:36:19.199Z,13.10
2023-02-14T10:40:35.833Z,12.20
2023-02-14T10:44:46.229Z,11.50
2023-02-14T10:49:19.001Z,11.00
2023-02-14T10:53:33.781Z,10.50
2023-02-14T10:57:40.733Z,10.20
2023-02-14T11:01:43.358Z,10.10
2023-02-14T11:05:48.431Z,10.20
2023-02-14T11:09:50.173Z,10.00
2023-02-14T11:13:52.165Z,10.00
2023-02-14T11:18:13.592Z,10.00
2023-02-14T11:22:29.998Z,10.30
2023-02-14T11:26:34.389Z,10.40
2023-02-14T11:30:41.508Z,10.30
2023-02-14T11:34:52.476Z,10.40
2023-02-14T11:39:40.154Z,10.40
2023-02-14T11:43:43.780Z,10.70
2023-02-14T11:47:45.587Z,10.70
2023-02-14T11:51:47.917Z,10.80
2023-02-14T11:55:57.089Z,10.70
2023-02-14T12:00:00.516Z,10.90
2023-02-14T12:04:07.259Z,10.80
2023-02-14T12:08:09.735Z,10.80
2023-02-14T12:12:21.410Z,10.70
2023-02-14T12:16:56.291Z,10.90
2023-02-14T12:21:21.397Z,10.60
2023-02-14T12:25:27.189Z,10.70
2023-02-14T12:29:34.556Z,10.90
2023-02-14T12:33:36.317Z,11.20
2023-02-14T12:38:04.908Z,11.10
2023-02-14T12:42:06.788Z,11.20
2023-02-14T12:46:23.471Z,11.20
2023-02-14T12:50:35.185Z,11.20
2023-02-14T12:55:24.808Z,11.30
2023-02-14T12:59:41.250Z,11.60
2023-02-14T13:03:48.929Z,11.70
2023-02-14T13:07:56.675Z,11.70
2023-02-14T13:12:04.466Z,12.20
2023-02-14T13:16:17.840Z,12.50
2023-02-14T13:20:36.087Z,12.80
2023-02-14T13:24:48.039Z,13.20
2023-02-14T13:29:10.247Z,14.10
2023-02-14T13:33:24.405Z,14.90
2023-02-14T13:37:27.442Z,15.90
2023-02-14T13:41:29.413Z,16.70
2023-02-14T13:45:39.955Z,16.90
2023-02-14T13:50:02.090Z,17.30
2023-02-14T13:54:32.606Z,17.70
2023-02-14T13:58:35.370Z,18.70
2023-02-14T14:03:07.463Z,19.00
2023-02-14T14:07:18.077Z,18.90
2023-02-14T14:11:22.447Z,18.80
2023-02-14T14:15:24.240Z,18.70
2023-02-14T14:19:25.976Z,18.40
2023-02-14T14:23:37.123Z,18.90
2023-02-14T14:27:44.909Z,18.80
2023-02-14T14:31:51.214Z,18.70
2023-02-14T14:35:58.991Z,18.60
2023-02-14T14:40:06.509Z,18.50
2023-02-14T14:44:08.211Z,18.50
2023-02-14T14:48:14.622Z,17.60
2023-02-14T14:52:27.516Z,16.50
2023-02-14T14:56:41.077Z,15.70
2023-02-14T15:00:51.485Z,14.90
2023-02-14T15:04:53.638Z,14.50
2023-02-14T15:08:56.496Z,14.00
2023-02-14T15:13:17.859Z,13.50
2023-02-14T15:17:22.380Z,13.30
2023-02-14T15:21:24.954Z,13.10
2023-02-14T15:25:33.602Z,12.80
2023-02-14T15:29:35.334Z,12.70
2023-02-14T15:33:37.468Z,12.60
2023-02-14T15:37:39.724Z,12.40
2023-02-14T15:41:45.293Z,12.10
2023-02-14T15:45:49.380Z,12.00
2023-02-14T15:49:51.393Z,11.80
2023-02-14T15:53:58.113Z,11.60
2023-02-14T15:58:13.874Z,11.20
2023-02-14T16:02:32.070Z,11.00
2023-02-14T16:06:47.046Z,10.80
2023-02-14T16:11:04.420Z,10.50
2023-02-14T16:15:15.490Z,10.30
2023-02-14T16:19:32.844Z,10.00
2023-02-14T16:23:36.958Z,9.80
2023-02-14T16:27:38.745Z,9.60
2023-02-14T16:32:14.092Z,9.50
2023-02-14T16:36:22.583Z,9.30
2023-02-14T16:40:27.459Z,9.00
2023-02-14T16:44:29.250Z,8.70
2023-02-14T16:48:30.937Z,8.40
2023-02-14T16:52:32.618Z,8.10
2023-02-14T16:56:54.154Z,7.90
2023-02-14T17:00:58.309Z,7.60
2023-02-14T17:05:00.415Z,7.40
2023-02-14T17:09:09.172Z,7.20
2023-02-14T17:13:11.498Z,6.90
2023-02-14T17:17:13.714Z,6.70
2023-02-14T17:21:16.984Z,6.50
2023-02-14T17:25:18.804Z,6.30
2023-02-14T17:29:20.523Z,6.10
2023-02-14T17:33:22.848Z,5.90
2023-02-14T17:37:24.638Z,5.70
2023-02-14T17:41:26.581Z,5.60
2023-02-14T17:45:28.282Z,5.40
2023-02-14T17:49:29.983Z,5.30
2023-02-14T17:53:33.145Z,5.10
2023-02-14T17:57:35.733Z,4.90
2023-02-14T18:01:37.756Z,4.80
2023-02-14T18:05:39.507Z,4.70
2023-02-14T18:09:41.279Z,4.60
2023-02-14T18:13:43.103Z,4.50
2023-02-14T18:17:48.297Z,4.40
2023-02-14T18:21:49.967Z,4.30
2023-02-14T18:25:58.102Z,4.20
2023-02-14T18:29:59.900Z,4.10
2023-02-14T18:34:01.816Z,3.90
2023-02-14T18:38:03.833Z,3.80
2023-02-14T18:42:05.552Z,3.70
2023-02-14T18:46:11.243Z,3.60
2023-02-14T18:50:12.988Z,3.50
2023-02-14T18:54:14.907Z,3.30
2023-02-14T18:58:16.591Z,3.20
2023-02-14T19:02:18.407Z,3.10
2023-02-14T19:06:20.836Z,3.10
2023-02-14T19:10:22.506Z,2.90
2023-02-14T19:14:24.175Z,2.90
2023-02-14T19:18:26.187Z,2.80
2023-02-14T19:22:27.900Z,2.90
2023-02-14T19:26:34.645Z,2.80
2023-02-14T19:30:37.544Z,2.70
2023-02-14T19:34:39.836Z,2.60
2023-02-14T19:38:47.824Z,2.50
2023-02-14T19:42:50.245Z,2.50
2023-02-14T19:46:54.603Z,2.30
2023-02-14T19:51:00.320Z,2.30
2023-02-14T19:55:03.650Z,2.30
2023-02-14T19:59:09.215Z,2.20
2023-02-14T20:03:10.957Z,2.10
2023-02-14T20:07:12.940Z,2.00
2023-02-14T20:11:25.092Z,1.90
2023-02-14T20:15:28.930Z,1.90
2023-02-14T20:19:33.255Z,1.80
2023-02-14T20:23:34.986Z,1.80
2023-02-14T20:27:36.969Z,1.70
2023-02-14T20:31:43.059Z,1.70
2023-02-14T20:35:45.146Z,1.70
2023-02-14T20:39:46.827Z,1.70
2023-02-14T20:43:48.535Z,1.70
2023-02-14T20:47:50.219Z,1.60
2023-02-14T20:51:52.755Z,1.50
2023-02-14T20:55:54.413Z,1.50
2023-02-14T20:59:56.274Z,1.40
2023-02-14T21:03:58.136Z,1.40
2023-02-14T21:07:59.964Z,1.30
2023-02-14T21:12:01.651Z,1.30
2023-02-14T21:16:05.624Z,1.30
2023-02-14T21:20:09.226Z,1.20
2023-02-14T21:24:14.502Z,1.20
2023-02-14T21:28:16.278Z,1.30
2023-02-14T21:32:18.100Z,1.10
2023-02-14T21:36:21.985Z,1.10
2023-02-14T21:40:24.646Z,1.00
2023-02-14T21:44:45.246Z,1.10
2023-02-14T21:49:05.771Z,1.10
2023-02-14T21:53:07.701Z,1.20
2023-02-14T21:57:09.430Z,1.20
2023-02-14T22:01:16.561Z,1.20
2023-02-14T22:05:18.446Z,1.10
2023-02-14T22:09:20.130Z,1.10
2023-02-14T22:13:22.076Z,1.10
2023-02-14T22:17:23.765Z,1.10
2023-02-14T22:21:26.899Z,1.10
2023-02-14T22:25:28.794Z,1.10
2023-02-14T22:29:30.456Z,1.20
2023-02-14T22:33:32.353Z,1.20
2023-02-14T22:37:34.020Z,1.30
2023-02-14T22:41:38.786Z,1.50
2023-02-14T22:45:43.312Z,1.60
2023-02-14T22:49:45.131Z,1.70
2023-02-14T22:53:47.349Z,1.80
2023-02-14T22:57:49.036Z,1.90
2023-02-14T23:01:52.324Z,2.00
2023-02-14T23:05:57.752Z,2.00
2023-02-14T23:09:59.465Z,2.10
2023-02-14T23:14:19.936Z,2.20
2023-02-14T23:18:44.817Z,2.30
2023-02-14T23:22:46.540Z,2.20
2023-02-14T23:26:48.270Z,2.10
2023-02-14T23:30:50.006Z,2.10
2023-02-14T23:34:51.981Z,2.10
2023-02-14T23:38:53.682Z,2.30
2023-02-14T23:42:55.424Z,2.30
2023-02-14T23:46:59.892Z,2.60
2023-02-14T23:51:01.641Z,2.60
2023-02-14T23:55:03.386Z,2.70
2023-02-14T23:59:06.252Z,2.80
